This is the latest recevied weather packets stored in our database for station/object DH8TOM-3. If no packets are shown the sender has not sent any weather packets the latest 10 day(s).
| Time | Temp. | Humidity | Pressure | Rain* | Wind** | Luminosity | Snow |
|---|---|---|---|---|---|---|---|
| 1778095422 | 16.67° C | 76% | 1005 hPa | 0 mm | - | - | - |
| 1778094819 | 16.67° C | 76% | 1004.9 hPa | 0 mm | - | - | - |
| 1778094217 | 16.67° C | 76% | 1004.9 hPa | 0 mm | - | - | - |
| 1778092110 | 17.22° C | 74% | 1004.8 hPa | 0 mm | - | - | - |
| 1778091508 | 17.22° C | 75% | 1004.4 hPa | 0 mm | - | - | - |
| 1778091211 | 17.78° C | 74% | 1004.4 hPa | 0 mm | - | - | - |
| 1778090906 | 17.78° C | 74% | 1004.4 hPa | 0 mm | - | - | - |
| 1778090606 | 17.78° C | 72% | 1004.2 hPa | 0 mm | - | - | - |
| 1778090304 | 17.78° C | 72% | 1004.2 hPa | 0 mm | - | - | - |
| 1778089100 | 18.33° C | 70% | 1004.1 hPa | 0 mm | - | - | - |
| 1778088798 | 18.33° C | 70% | 1004.1 hPa | 0 mm | - | - | - |
| 1778088197 | 18.33° C | 69% | 1003.9 hPa | 0 mm | - | - | - |
| 1778084648 | 20° C | 66% | 1003.6 hPa | 0 mm | - | - | - |
| 1778084344 | 20° C | 66% | 1003.6 hPa | 0 mm | - | - | - |
| 1778081876 | 20.56° C | 65% | 1003.6 hPa | 0 mm | - | - | - |
| 1778077964 | 20.56° C | 65% | 1003.8 hPa | 0 mm | - | - | - |
| 1778076459 | 20.56° C | 66% | 1003.9 hPa | 0 mm | - | - | - |
| 1778074351 | 20° C | 67% | 1004.1 hPa | 0 mm | - | - | - |
| 1778074050 | 20° C | 67% | 1004.1 hPa | 0 mm | - | - | - |
| 1778073448 | 20.56° C | 64% | 1004.1 hPa | 0 mm | - | - | - |
| 1778073147 | 20.56° C | 64% | 1004 hPa | 0 mm | - | - | - |
| 1778072545 | 20.56° C | 63% | 1004.1 hPa | 0 mm | - | - | - |
| 1778070819 | 20° C | 65% | 1004.1 hPa | 0 mm | - | - | - |
| 1778069535 | 20° C | 64% | 1004.1 hPa | 0 mm | - | - | - |
| 1778069234 | 20° C | 64% | 1004.1 hPa | 0 mm | - | - | - |
* Rain latest hour (hover to see other rain measurements)
** Current wind speed in m/s (hover to see current wind gust speed)